createdAt,value
2017-03-29T00:00:35.599Z,9.58
2017-03-29T00:01:47.516Z,9.64
2017-03-29T00:03:00.062Z,9.59
2017-03-29T00:04:12.591Z,9.52
2017-03-29T00:05:25.129Z,9.48
2017-03-29T00:06:37.635Z,9.52
2017-03-29T00:07:50.184Z,9.51
2017-03-29T00:09:02.694Z,9.52
2017-03-29T00:10:15.213Z,9.48
2017-03-29T00:11:27.444Z,9.52
2017-03-29T00:12:39.982Z,9.47
2017-03-29T00:13:52.516Z,9.47
2017-03-29T00:15:05.071Z,9.48
2017-03-29T00:16:17.317Z,9.44
2017-03-29T00:17:29.846Z,9.49
2017-03-29T00:18:42.368Z,9.49
2017-03-29T00:19:54.863Z,9.47
2017-03-29T00:21:07.379Z,9.36
2017-03-29T00:22:19.924Z,9.47
2017-03-29T00:23:32.178Z,9.36
2017-03-29T00:24:44.698Z,9.33
2017-03-29T00:25:57.245Z,9.31
2017-03-29T00:27:09.806Z,9.33
2017-03-29T00:28:22.336Z,9.3
2017-03-29T00:29:34.572Z,9.34
2017-03-29T00:30:47.097Z,9.34
2017-03-29T00:31:59.653Z,9.33
2017-03-29T00:33:12.184Z,9.36
2017-03-29T00:34:24.722Z,9.34
2017-03-29T00:35:37.256Z,9.33
2017-03-29T00:36:49.761Z,9.27
2017-03-29T00:38:02.329Z,9.27
2017-03-29T00:39:14.867Z,9.21
2017-03-29T00:40:27.360Z,9.27
2017-03-29T00:41:39.896Z,9.24
2017-03-29T00:42:52.430Z,9.29
2017-03-29T00:44:04.902Z,9.26
2017-03-29T00:45:17.426Z,9.26
2017-03-29T00:46:29.643Z,9.21
2017-03-29T00:47:42.172Z,9.18
2017-03-29T00:48:54.705Z,9.19
2017-03-29T00:50:07.213Z,9.15
2017-03-29T00:51:19.748Z,9.16
2017-03-29T00:52:32.297Z,9.19
2017-03-29T00:53:44.814Z,9.15
2017-03-29T00:54:57.323Z,9.22
2017-03-29T00:56:09.294Z,9.22
2017-03-29T00:57:21.535Z,9.15
2017-03-29T00:58:33.748Z,9.18
2017-03-29T00:59:45.953Z,9.16
2017-03-29T01:00:58.502Z,9.13
2017-03-29T01:02:11.069Z,9.12
2017-03-29T01:03:23.607Z,9.13
2017-03-29T01:04:36.114Z,9.11
2017-03-29T01:05:48.675Z,9.05
2017-03-29T01:07:01.224Z,9.12
2017-03-29T01:08:13.450Z,9.02
2017-03-29T01:09:25.654Z,9.02
2017-03-29T01:10:37.909Z,8.97
2017-03-29T01:11:50.437Z,8.99
2017-03-29T01:13:02.958Z,8.96
2017-03-29T01:14:15.170Z,8.97
2017-03-29T01:15:27.695Z,8.92
2017-03-29T01:16:40.238Z,8.9
2017-03-29T01:17:52.491Z,8.89
2017-03-29T01:19:05.029Z,8.86
2017-03-29T01:20:17.586Z,8.79
2017-03-29T01:21:30.152Z,8.87
2017-03-29T01:22:42.699Z,8.86
2017-03-29T01:23:54.924Z,8.82
2017-03-29T01:25:07.147Z,8.72
2017-03-29T01:26:19.663Z,8.77
2017-03-29T01:27:32.212Z,8.71
2017-03-29T01:28:44.733Z,8.72
2017-03-29T01:29:57.278Z,8.66
2017-03-29T01:31:09.847Z,8.59
2017-03-29T01:32:22.369Z,8.66
2017-03-29T01:33:34.640Z,8.6
2017-03-29T01:34:47.204Z,8.45
2017-03-29T01:35:59.727Z,8.52
2017-03-29T01:37:12.256Z,8.54
2017-03-29T01:38:24.767Z,8.49
2017-03-29T01:39:36.688Z,8.44
2017-03-29T01:40:49.237Z,8.42
2017-03-29T01:42:01.755Z,8.36
2017-03-29T01:43:14.304Z,8.39
2017-03-29T01:44:26.547Z,8.42
2017-03-29T01:45:39.051Z,8.31
2017-03-29T01:46:51.585Z,8.28
2017-03-29T01:48:04.085Z,8.27
2017-03-29T01:49:16.605Z,8.23
2017-03-29T01:50:29.145Z,8.27
2017-03-29T01:51:41.669Z,8.32
2017-03-29T01:52:53.908Z,8.31
2017-03-29T01:54:06.464Z,8.27
2017-03-29T01:55:18.982Z,8.24
2017-03-29T01:56:31.509Z,8.21
2017-03-29T01:57:43.736Z,8.23
2017-03-29T01:58:56.294Z,8.21
2017-03-29T02:00:08.516Z,8.21
2017-03-29T02:01:21.064Z,8.18
2017-03-29T02:02:33.618Z,8.06
2017-03-29T02:03:46.168Z,8.06
2017-03-29T02:04:58.952Z,8.09
2017-03-29T02:06:11.174Z,8.09
2017-03-29T02:07:23.698Z,8.09
2017-03-29T02:08:35.915Z,8.08
2017-03-29T02:09:48.458Z,8.02
2017-03-29T02:11:00.986Z,7.99
2017-03-29T02:12:13.486Z,7.98
2017-03-29T02:13:26.008Z,7.93
2017-03-29T02:14:38.244Z,7.98
2017-03-29T02:15:50.448Z,7.98
2017-03-29T02:17:02.684Z,7.98
2017-03-29T02:18:14.916Z,7.98
2017-03-29T02:19:27.153Z,7.88
2017-03-29T02:20:39.657Z,7.88
2017-03-29T02:21:52.167Z,7.85
2017-03-29T02:23:04.713Z,7.85
2017-03-29T02:24:17.266Z,7.8
2017-03-29T02:25:29.508Z,7.8
2017-03-29T02:26:41.762Z,7.88
2017-03-29T02:27:54.304Z,7.75
2017-03-29T02:29:06.842Z,7.69
2017-03-29T02:30:19.392Z,7.78
2017-03-29T02:31:31.610Z,7.66
2017-03-29T02:32:44.142Z,7.74
2017-03-29T02:33:56.712Z,7.59
2017-03-29T02:35:09.273Z,7.67
2017-03-29T02:36:21.521Z,7.67
2017-03-29T02:37:34.039Z,7.67
2017-03-29T02:38:46.570Z,7.7
2017-03-29T02:39:59.092Z,7.77
2017-03-29T02:41:11.305Z,7.56
2017-03-29T02:42:23.825Z,7.69
2017-03-29T02:43:36.376Z,7.67
2017-03-29T02:44:48.913Z,7.64
2017-03-29T02:46:01.417Z,7.62
2017-03-29T02:47:13.930Z,7.53
2017-03-29T02:48:26.477Z,7.55
2017-03-29T02:49:39.004Z,7.53
2017-03-29T02:50:50.955Z,7.56
2017-03-29T02:52:03.500Z,7.53
2017-03-29T02:53:16.035Z,7.55
2017-03-29T02:54:28.289Z,7.56
2017-03-29T02:55:40.810Z,7.48
2017-03-29T02:56:53.051Z,7.43
2017-03-29T02:58:05.282Z,7.41
2017-03-29T02:59:18.129Z,7.41
2017-03-29T03:00:30.674Z,7.43
2017-03-29T03:01:42.916Z,7.32
2017-03-29T03:02:55.460Z,7.33
2017-03-29T03:04:07.980Z,7.4
2017-03-29T03:05:20.169Z,7.31
2017-03-29T03:06:32.725Z,7.29
2017-03-29T03:07:45.248Z,7.26
2017-03-29T03:08:57.790Z,7.25
2017-03-29T03:10:10.338Z,7.29
2017-03-29T03:11:22.877Z,7.28
2017-03-29T03:12:35.395Z,7.15
2017-03-29T03:13:47.926Z,7.11
2017-03-29T03:15:00.472Z,7.08
2017-03-29T03:16:13.010Z,7.22
2017-03-29T03:17:25.564Z,7.1
2017-03-29T03:18:38.113Z,7.1
2017-03-29T03:19:50.020Z,7.13
2017-03-29T03:21:02.569Z,7.11
2017-03-29T03:22:15.112Z,7.08
2017-03-29T03:23:27.333Z,7.03
2017-03-29T03:24:39.840Z,7.04
2017-03-29T03:25:52.074Z,7.04
2017-03-29T03:27:04.588Z,7.03
2017-03-29T03:28:17.103Z,6.96
2017-03-29T03:29:29.639Z,6.93
2017-03-29T03:30:41.562Z,6.87
2017-03-29T03:31:54.083Z,6.97
2017-03-29T03:33:06.267Z,6.96
2017-03-29T03:34:18.797Z,6.92
2017-03-29T03:35:31.319Z,6.95
2017-03-29T03:36:43.866Z,6.83
2017-03-29T03:37:56.409Z,6.85
2017-03-29T03:39:08.640Z,6.87
2017-03-29T03:40:21.155Z,6.89
2017-03-29T03:41:33.712Z,6.89
2017-03-29T03:42:46.251Z,6.82
2017-03-29T03:43:58.763Z,6.87
2017-03-29T03:45:11.269Z,6.89
2017-03-29T03:46:23.816Z,6.9
2017-03-29T03:47:36.382Z,6.87
2017-03-29T03:48:48.597Z,6.9
2017-03-29T03:50:01.122Z,6.78
2017-03-29T03:51:13.625Z,6.95
2017-03-29T03:52:25.852Z,6.95
2017-03-29T03:53:38.391Z,6.9
2017-03-29T03:54:50.609Z,6.86
2017-03-29T03:56:03.109Z,6.85
2017-03-29T03:57:15.344Z,6.95
2017-03-29T03:58:27.567Z,6.96
2017-03-29T03:59:39.774Z,6.85
2017-03-29T04:00:52.288Z,6.95
2017-03-29T04:02:04.839Z,6.87
2017-03-29T04:03:17.376Z,6.85
2017-03-29T04:04:30.223Z,6.78
2017-03-29T04:05:42.751Z,6.89
2017-03-29T04:06:55.293Z,6.83
2017-03-29T04:08:07.517Z,6.93
2017-03-29T04:09:20.056Z,6.95
2017-03-29T04:10:32.576Z,6.87
2017-03-29T04:11:44.508Z,6.85
2017-03-29T04:12:57.026Z,6.95
2017-03-29T04:14:09.560Z,7
2017-03-29T04:15:21.789Z,6.93
2017-03-29T04:16:34.291Z,6.96
2017-03-29T04:17:46.787Z,7.01
2017-03-29T04:18:59.303Z,7.04
2017-03-29T04:20:11.519Z,7.1
2017-03-29T04:21:24.047Z,7.1
2017-03-29T04:22:36.569Z,7.15
2017-03-29T04:23:49.088Z,7.26
2017-03-29T04:25:01.635Z,7.13
2017-03-29T04:26:14.157Z,7.21
2017-03-29T04:27:26.695Z,7.1
2017-03-29T04:28:39.224Z,7.22
2017-03-29T04:29:51.758Z,7.25
2017-03-29T04:31:04.279Z,7.22
2017-03-29T04:32:17.178Z,7.26
2017-03-29T04:33:29.728Z,7.26
2017-03-29T04:34:42.274Z,7.26
2017-03-29T04:35:54.491Z,7.22
2017-03-29T04:37:07.367Z,7.25
2017-03-29T04:38:19.889Z,7.28
2017-03-29T04:39:32.104Z,7.22
2017-03-29T04:40:44.607Z,7.28
2017-03-29T04:41:56.843Z,7.31
2017-03-29T04:43:09.087Z,7.22
2017-03-29T04:44:21.634Z,7.21
2017-03-29T04:45:34.179Z,7.21
2017-03-29T04:46:46.704Z,7.21
2017-03-29T04:47:59.199Z,7.18
2017-03-29T04:49:11.756Z,7.22
2017-03-29T04:50:24.276Z,7.21
2017-03-29T04:51:36.809Z,7.18
2017-03-29T04:52:49.031Z,7.25
2017-03-29T04:54:01.563Z,7.19
2017-03-29T04:55:14.105Z,7.21
2017-03-29T04:56:26.650Z,7.15
2017-03-29T04:57:38.894Z,7.25
2017-03-29T04:58:51.388Z,7.11
2017-03-29T05:00:03.942Z,7.14
2017-03-29T05:01:16.476Z,7.08
2017-03-29T05:02:28.680Z,7.15
2017-03-29T05:03:41.203Z,7.11
2017-03-29T05:04:53.742Z,7.23
2017-03-29T05:06:06.267Z,7.08
2017-03-29T05:07:18.767Z,7.19
2017-03-29T05:08:31.285Z,7.11
2017-03-29T05:09:43.826Z,7.13
2017-03-29T05:10:56.072Z,7.14
2017-03-29T05:12:07.694Z,7.23
2017-03-29T05:13:20.272Z,7.28
2017-03-29T05:14:32.807Z,7.25
2017-03-29T05:15:45.335Z,7.37
2017-03-29T05:16:57.849Z,7.44
2017-03-29T05:18:10.394Z,7.44
2017-03-29T05:19:22.940Z,7.53
2017-03-29T05:20:35.836Z,7.59
2017-03-29T05:21:48.358Z,7.69
2017-03-29T05:23:00.865Z,7.58
2017-03-29T05:24:13.105Z,7.74
2017-03-29T05:25:25.620Z,7.74
2017-03-29T05:26:37.848Z,7.74
2017-03-29T05:27:50.061Z,7.85
2017-03-29T05:29:02.308Z,7.88
2017-03-29T05:30:14.853Z,7.95
2017-03-29T05:31:27.403Z,8.02
2017-03-29T05:32:39.956Z,8.09
2017-03-29T05:33:52.534Z,8.24
2017-03-29T05:35:05.094Z,8.21
2017-03-29T05:36:17.618Z,8.24
2017-03-29T05:37:29.853Z,8.32
2017-03-29T05:38:42.377Z,8.39
2017-03-29T05:39:54.632Z,8.54
2017-03-29T05:41:07.153Z,8.57
2017-03-29T05:42:19.699Z,8.61
2017-03-29T05:43:32.241Z,8.72
2017-03-29T05:44:44.764Z,8.75
2017-03-29T05:45:56.678Z,8.84
2017-03-29T05:47:09.196Z,8.93
2017-03-29T05:48:21.745Z,8.9
2017-03-29T05:49:34.314Z,9
2017-03-29T05:50:46.570Z,9.13
2017-03-29T05:51:59.112Z,9.11
2017-03-29T05:53:12.012Z,9.19
2017-03-29T05:54:24.231Z,9.29
2017-03-29T05:55:36.775Z,9.29
2017-03-29T05:56:49.015Z,9.31
2017-03-29T05:58:01.220Z,9.42
2017-03-29T05:59:13.783Z,9.48
2017-03-29T06:00:26.054Z,9.42
2017-03-29T06:01:38.604Z,9.49
2017-03-29T06:02:50.821Z,9.63
2017-03-29T06:04:03.064Z,9.63
2017-03-29T06:05:15.588Z,9.72
2017-03-29T06:06:28.110Z,9.8
2017-03-29T06:07:40.609Z,9.91
2017-03-29T06:08:53.130Z,9.94
2017-03-29T06:10:05.368Z,9.92
2017-03-29T06:11:17.614Z,9.97
2017-03-29T06:12:30.146Z,10.21
2017-03-29T06:13:42.691Z,10.13
2017-03-29T06:14:55.259Z,10.18
2017-03-29T06:16:07.485Z,10.23
2017-03-29T06:17:20.026Z,10.28
2017-03-29T06:18:32.531Z,10.31
2017-03-29T06:19:45.085Z,10.25
2017-03-29T06:20:57.339Z,10.31
2017-03-29T06:22:09.863Z,10.38
2017-03-29T06:23:22.108Z,10.33
2017-03-29T06:24:34.626Z,10.36
2017-03-29T06:25:47.149Z,10.43
2017-03-29T06:26:59.695Z,10.48
2017-03-29T06:28:11.924Z,10.55
2017-03-29T06:29:24.178Z,10.58
2017-03-29T06:30:36.765Z,10.59
2017-03-29T06:31:49.330Z,10.71
2017-03-29T06:33:01.866Z,10.75
2017-03-29T06:34:14.465Z,10.72
2017-03-29T06:35:26.717Z,10.77
2017-03-29T06:36:39.229Z,10.77
2017-03-29T06:37:51.762Z,10.87
2017-03-29T06:39:04.295Z,11.01
2017-03-29T06:40:16.824Z,11.15
2017-03-29T06:41:29.372Z,11.25
2017-03-29T06:42:41.890Z,11.33
2017-03-29T06:43:54.415Z,11.44
2017-03-29T06:45:06.959Z,11.65
2017-03-29T06:46:19.203Z,11.77
2017-03-29T06:47:31.724Z,11.95
2017-03-29T06:48:44.241Z,12.11
2017-03-29T06:49:56.481Z,12.2
2017-03-29T06:51:08.715Z,12.23
2017-03-29T06:52:20.961Z,12.43
2017-03-29T06:53:33.503Z,12.45
2017-03-29T06:54:46.028Z,12.55
2017-03-29T06:55:58.266Z,12.69
2017-03-29T06:57:10.492Z,12.76
2017-03-29T06:58:23.008Z,12.69
2017-03-29T06:59:35.537Z,12.83
2017-03-29T07:00:48.103Z,12.98
2017-03-29T07:02:00.304Z,12.95
2017-03-29T07:03:12.844Z,13.13
2017-03-29T07:04:25.270Z,13.27
2017-03-29T07:05:38.289Z,13.33
2017-03-29T07:06:50.858Z,13.42
2017-03-29T07:08:02.799Z,13.55
2017-03-29T07:09:15.328Z,13.61
2017-03-29T07:10:27.896Z,13.68
2017-03-29T07:11:40.159Z,13.78
2017-03-29T07:12:52.384Z,13.82
2017-03-29T07:14:04.651Z,13.93
2017-03-29T07:15:17.185Z,13.91
2017-03-29T07:16:29.705Z,13.95
2017-03-29T07:17:42.239Z,13.95
2017-03-29T07:18:54.488Z,13.97
2017-03-29T07:20:06.784Z,14.05
2017-03-29T07:21:19.288Z,14.05
2017-03-29T07:22:31.810Z,14.11
2017-03-29T07:23:44.373Z,14.19
2017-03-29T07:24:56.922Z,14.2
2017-03-29T07:26:09.439Z,14.15
2017-03-29T07:27:21.993Z,14.23
2017-03-29T07:28:34.528Z,14.23
2017-03-29T07:29:47.073Z,14.26
2017-03-29T07:30:59.622Z,14.26
2017-03-29T07:32:11.877Z,14.33
2017-03-29T07:33:24.419Z,14.41
2017-03-29T07:34:36.943Z,14.45
2017-03-29T07:35:49.507Z,14.45
2017-03-29T07:37:02.034Z,14.55
2017-03-29T07:38:14.580Z,14.59
2017-03-29T07:39:27.094Z,14.63
2017-03-29T07:40:39.637Z,14.68
2017-03-29T07:41:52.169Z,14.73
2017-03-29T07:43:04.707Z,14.78
2017-03-29T07:44:17.234Z,14.81
2017-03-29T07:45:29.774Z,14.93
2017-03-29T07:46:42.328Z,14.92
2017-03-29T07:47:54.869Z,15.02
2017-03-29T07:49:07.407Z,15.05
2017-03-29T07:50:19.928Z,15.02
2017-03-29T07:51:32.457Z,15.02
2017-03-29T07:52:44.996Z,15.1
2017-03-29T07:53:57.521Z,15.12
2017-03-29T07:55:10.072Z,15.07
2017-03-29T07:56:22.316Z,15.1
2017-03-29T07:57:34.883Z,15.07
2017-03-29T07:58:47.407Z,15.17
2017-03-29T07:59:59.946Z,15.08
2017-03-29T08:01:12.192Z,15.07
2017-03-29T08:02:24.737Z,15.12
2017-03-29T08:03:37.283Z,15.19
2017-03-29T08:04:49.808Z,15.14
2017-03-29T08:06:02.351Z,15.17
2017-03-29T08:07:14.878Z,15.25
2017-03-29T08:08:27.425Z,15.29
2017-03-29T08:09:39.649Z,15.3
2017-03-29T08:10:52.199Z,15.29
2017-03-29T08:12:04.737Z,15.27
2017-03-29T08:13:17.283Z,15.19
2017-03-29T08:14:29.802Z,15.17
2017-03-29T08:15:42.369Z,15.22
2017-03-29T08:16:54.891Z,15.18
2017-03-29T08:18:07.409Z,15.25
2017-03-29T08:19:19.942Z,15.26
2017-03-29T08:20:32.505Z,15.3
2017-03-29T08:21:45.057Z,15.27
2017-03-29T08:22:57.306Z,15.3
2017-03-29T08:24:09.851Z,15.29
2017-03-29T08:25:22.359Z,15.23
2017-03-29T08:26:34.632Z,15.19
2017-03-29T08:27:47.202Z,15.17
2017-03-29T08:28:59.451Z,15.11
2017-03-29T08:30:12.002Z,15.11
2017-03-29T08:31:24.550Z,15.18
2017-03-29T08:32:37.113Z,15.11
2017-03-29T08:33:49.636Z,15.1
2017-03-29T08:35:01.889Z,15.19
2017-03-29T08:36:14.431Z,15.12
2017-03-29T08:37:26.982Z,15.22
2017-03-29T08:38:38.920Z,15.23
2017-03-29T08:39:51.464Z,15.18
2017-03-29T08:41:04.014Z,15.23
2017-03-29T08:42:16.227Z,15.25
2017-03-29T08:43:28.756Z,15.3
2017-03-29T08:44:41.305Z,15.19
2017-03-29T08:45:53.540Z,15.33
2017-03-29T08:47:06.073Z,15.41
2017-03-29T08:48:18.318Z,15.45
2017-03-29T08:49:30.862Z,15.5
2017-03-29T08:50:43.399Z,15.5
2017-03-29T08:51:55.331Z,15.57
2017-03-29T08:53:07.273Z,15.59
2017-03-29T08:54:19.815Z,15.62
2017-03-29T08:55:32.336Z,15.72
2017-03-29T08:56:44.858Z,15.76
2017-03-29T08:57:57.386Z,15.73
2017-03-29T08:59:09.945Z,15.88
2017-03-29T09:00:22.470Z,15.9
2017-03-29T09:01:34.998Z,15.92
2017-03-29T09:02:47.512Z,15.9
2017-03-29T09:03:59.747Z,15.85
2017-03-29T09:05:12.309Z,15.88
2017-03-29T09:06:24.821Z,15.88
2017-03-29T09:07:37.370Z,15.92
2017-03-29T09:08:49.912Z,15.92
2017-03-29T09:10:02.462Z,15.9
2017-03-29T09:11:15.012Z,15.91
2017-03-29T09:12:27.558Z,15.84
2017-03-29T09:13:40.079Z,15.91
2017-03-29T09:14:52.620Z,15.96
2017-03-29T09:16:04.841Z,15.88
2017-03-29T09:17:17.412Z,15.99
2017-03-29T09:18:29.663Z,16
2017-03-29T09:19:42.201Z,16.09
2017-03-29T09:20:54.725Z,16.26
2017-03-29T09:22:07.268Z,16.39
2017-03-29T09:23:19.803Z,16.32
2017-03-29T09:24:32.344Z,16.39
2017-03-29T09:25:44.911Z,16.54
2017-03-29T09:26:57.451Z,16.57
2017-03-29T09:28:09.984Z,16.61
2017-03-29T09:29:22.555Z,16.8
2017-03-29T09:30:35.115Z,16.83
2017-03-29T09:31:47.667Z,16.86
2017-03-29T09:32:59.918Z,16.89
2017-03-29T09:34:12.488Z,16.94
2017-03-29T09:35:25.059Z,16.94
2017-03-29T09:36:37.602Z,16.89
2017-03-29T09:37:49.829Z,16.87
2017-03-29T09:39:02.390Z,16.76
2017-03-29T09:40:14.914Z,16.82
2017-03-29T09:41:27.456Z,16.69
2017-03-29T09:42:39.987Z,16.72
2017-03-29T09:43:52.532Z,16.68
2017-03-29T09:45:05.076Z,16.73
2017-03-29T09:46:17.640Z,16.76
2017-03-29T09:47:30.172Z,16.84
2017-03-29T09:48:42.730Z,16.95
2017-03-29T09:49:54.684Z,17.07
2017-03-29T09:51:07.232Z,17.12
2017-03-29T09:52:19.795Z,17.13
2017-03-29T09:53:32.344Z,17.16
2017-03-29T09:54:44.868Z,17.13
2017-03-29T09:55:57.416Z,17.1
2017-03-29T09:57:09.935Z,17.04
2017-03-29T09:58:22.499Z,16.95
2017-03-29T09:59:35.055Z,16.97
2017-03-29T10:00:47.599Z,16.91
2017-03-29T10:02:00.140Z,16.76
2017-03-29T10:03:12.687Z,16.65
2017-03-29T10:04:24.927Z,16.54
2017-03-29T10:05:37.454Z,16.44
2017-03-29T10:06:49.991Z,16.41
2017-03-29T10:08:02.524Z,16.37
2017-03-29T10:09:15.062Z,16.37
2017-03-29T10:10:27.608Z,16.28
2017-03-29T10:11:40.150Z,16.25
2017-03-29T10:12:52.100Z,16.22
2017-03-29T10:14:04.345Z,16.12
2017-03-29T10:15:16.899Z,16.1
2017-03-29T10:16:29.420Z,16.02
2017-03-29T10:17:41.954Z,16.03
2017-03-29T10:18:54.501Z,16.03
2017-03-29T10:20:07.035Z,16.16
2017-03-29T10:21:19.571Z,16.16
2017-03-29T10:22:32.140Z,16.28
2017-03-29T10:23:44.662Z,16.29
2017-03-29T10:24:57.204Z,16.46
2017-03-29T10:26:09.460Z,16.47
2017-03-29T10:27:21.996Z,16.62
2017-03-29T10:28:34.243Z,16.69
2017-03-29T10:29:46.796Z,16.68
2017-03-29T10:30:59.034Z,16.99
2017-03-29T10:32:11.585Z,17.04
2017-03-29T10:33:23.834Z,17.1
2017-03-29T10:34:36.351Z,17.27
2017-03-29T10:35:48.596Z,17.3
2017-03-29T10:37:00.501Z,17.23
2017-03-29T10:38:13.089Z,17.32
2017-03-29T10:39:25.609Z,17.3
2017-03-29T10:40:38.155Z,17.23
2017-03-29T10:41:50.710Z,17.31
2017-03-29T10:43:03.248Z,17.37
2017-03-29T10:44:15.165Z,17.42
2017-03-29T10:45:27.694Z,17.32
2017-03-29T10:46:40.234Z,17.28
2017-03-29T10:47:52.486Z,17.27
2017-03-29T10:49:05.025Z,17.22
2017-03-29T10:50:17.580Z,17.04
2017-03-29T10:51:30.141Z,17.04
2017-03-29T10:52:42.694Z,16.91
2017-03-29T10:53:55.218Z,16.83
2017-03-29T10:55:07.764Z,16.72
2017-03-29T10:56:20.007Z,16.59
2017-03-29T10:57:32.552Z,16.43
2017-03-29T10:58:45.070Z,16.44
2017-03-29T10:59:57.295Z,16.4
2017-03-29T11:01:09.818Z,16.4
2017-03-29T11:02:22.361Z,16.31
2017-03-29T11:03:34.874Z,16.31
2017-03-29T11:04:47.399Z,16.41
2017-03-29T11:05:59.627Z,16.36
2017-03-29T11:07:12.163Z,16.4
2017-03-29T11:08:24.665Z,16.34
2017-03-29T11:09:36.910Z,16.36
2017-03-29T11:10:49.160Z,16.25
2017-03-29T11:12:01.122Z,16.21
2017-03-29T11:13:13.351Z,16.17
2017-03-29T11:14:25.595Z,16.12
2017-03-29T11:15:37.540Z,16.1
2017-03-29T11:16:49.480Z,16.06
2017-03-29T11:18:02.013Z,16.08
2017-03-29T11:19:14.575Z,15.91
2017-03-29T11:20:26.823Z,15.91
2017-03-29T11:21:39.345Z,15.76
2017-03-29T11:22:51.596Z,15.69
2017-03-29T11:24:03.521Z,15.66
2017-03-29T11:25:16.054Z,15.5
2017-03-29T11:26:28.297Z,15.41
2017-03-29T11:27:40.828Z,15.11
2017-03-29T11:28:53.063Z,15.04
2017-03-29T11:30:05.271Z,14.93
2017-03-29T11:31:17.506Z,14.73
2017-03-29T11:32:29.729Z,14.68
2017-03-29T11:33:42.283Z,14.62
2017-03-29T11:34:54.844Z,14.66
2017-03-29T11:36:07.368Z,14.51
2017-03-29T11:37:19.613Z,14.55
2017-03-29T11:38:31.842Z,14.41
2017-03-29T11:39:44.402Z,14.44
2017-03-29T11:40:56.655Z,14.43
2017-03-29T11:42:08.877Z,14.36
2017-03-29T11:43:21.422Z,14.31
2017-03-29T11:44:33.664Z,14.28
2017-03-29T11:45:46.217Z,14.19
2017-03-29T11:46:58.736Z,14.18
2017-03-29T11:48:10.956Z,14.26
2017-03-29T11:49:23.535Z,14.22
2017-03-29T11:50:35.766Z,14.23
2017-03-29T11:51:48.310Z,14.18
2017-03-29T11:53:00.539Z,14.08
2017-03-29T11:54:12.452Z,14.04
2017-03-29T11:55:24.684Z,14.03
2017-03-29T11:56:36.908Z,13.91
2017-03-29T11:57:49.466Z,13.91
2017-03-29T11:59:01.990Z,13.85
2017-03-29T12:00:14.516Z,13.82
2017-03-29T12:01:26.141Z,13.79
2017-03-29T12:02:38.410Z,13.71
2017-03-29T12:03:50.948Z,13.68
2017-03-29T12:05:03.194Z,13.5
2017-03-29T12:06:15.415Z,13.47
2017-03-29T12:07:27.660Z,13.39
2017-03-29T12:08:39.886Z,13.31
2017-03-29T12:09:52.407Z,13.26
2017-03-29T12:11:04.924Z,13.19
2017-03-29T12:12:17.516Z,13.12
2017-03-29T12:13:29.741Z,13.08
2017-03-29T12:14:42.283Z,13.16
2017-03-29T12:15:54.504Z,13.05
2017-03-29T12:17:06.735Z,13.08
2017-03-29T12:18:18.974Z,13.05
2017-03-29T12:19:31.207Z,13.08
2017-03-29T12:20:43.439Z,13.02
2017-03-29T12:21:55.694Z,12.95
2017-03-29T12:23:07.929Z,12.94
2017-03-29T12:24:20.186Z,12.84
2017-03-29T12:25:32.733Z,12.86
2017-03-29T12:26:44.967Z,12.78
2017-03-29T12:27:57.517Z,12.87
2017-03-29T12:29:09.763Z,12.75
2017-03-29T12:30:22.310Z,12.8
2017-03-29T12:31:34.535Z,12.75
2017-03-29T12:32:47.054Z,12.69
2017-03-29T12:33:59.567Z,12.68
2017-03-29T12:35:12.097Z,12.72
2017-03-29T12:36:24.612Z,12.54
2017-03-29T12:37:36.858Z,12.54
2017-03-29T12:38:49.417Z,12.53
2017-03-29T12:40:01.975Z,12.4
2017-03-29T12:41:14.218Z,12.44
2017-03-29T12:42:26.765Z,12.47
2017-03-29T12:43:39.313Z,12.43
2017-03-29T12:44:51.860Z,12.47
2017-03-29T12:46:04.388Z,12.48
2017-03-29T12:47:16.651Z,12.43
2017-03-29T12:48:29.176Z,12.47
2017-03-29T12:49:41.744Z,12.43
2017-03-29T12:50:54.303Z,12.45
2017-03-29T12:52:06.868Z,12.43
2017-03-29T12:53:19.385Z,12.51
2017-03-29T12:54:31.914Z,12.37
2017-03-29T12:55:44.455Z,12.53
2017-03-29T12:56:56.990Z,12.54
2017-03-29T12:58:09.241Z,12.61
2017-03-29T12:59:21.496Z,12.66
2017-03-29T13:00:33.728Z,12.62
2017-03-29T13:01:46.273Z,12.65
2017-03-29T13:02:58.827Z,12.69
2017-03-29T13:04:11.353Z,12.75
2017-03-29T13:05:23.597Z,12.81
2017-03-29T13:06:35.846Z,12.76
2017-03-29T13:07:48.366Z,12.7
2017-03-29T13:09:00.628Z,12.76
2017-03-29T13:10:13.158Z,12.81
2017-03-29T13:11:25.392Z,12.73
2017-03-29T13:12:37.911Z,12.8
2017-03-29T13:13:50.445Z,12.83
2017-03-29T13:15:02.989Z,12.8
2017-03-29T13:16:14.911Z,12.78
2017-03-29T13:17:27.424Z,12.83
2017-03-29T13:18:40.295Z,12.84
2017-03-29T13:19:52.841Z,12.8
2017-03-29T13:21:04.795Z,12.78
2017-03-29T13:22:17.339Z,12.8
2017-03-29T13:23:29.903Z,12.78
2017-03-29T13:24:42.446Z,12.8
2017-03-29T13:25:54.702Z,12.69
2017-03-29T13:27:06.638Z,12.76
2017-03-29T13:28:18.884Z,12.63
2017-03-29T13:29:31.441Z,12.65
2017-03-29T13:30:44.024Z,12.7
2017-03-29T13:31:56.268Z,12.62
2017-03-29T13:33:08.842Z,12.51
2017-03-29T13:34:21.346Z,12.45
2017-03-29T13:35:32.972Z,12.45
2017-03-29T13:36:45.538Z,12.37
2017-03-29T13:37:57.754Z,12.28
2017-03-29T13:39:10.279Z,12.29
2017-03-29T13:40:22.492Z,12.25
2017-03-29T13:41:34.439Z,12.2
2017-03-29T13:42:46.683Z,12.29
2017-03-29T13:43:58.642Z,12.29
2017-03-29T13:45:10.865Z,12.18
2017-03-29T13:46:23.101Z,12.28
2017-03-29T13:47:35.322Z,12.32
2017-03-29T13:48:47.893Z,12.29
2017-03-29T13:49:59.835Z,12.28
2017-03-29T13:51:12.106Z,12.26
2017-03-29T13:52:24.657Z,12.39
2017-03-29T13:53:36.873Z,12.28
2017-03-29T13:54:49.408Z,12.25
2017-03-29T13:56:01.926Z,12.3
2017-03-29T13:57:14.189Z,12.32
2017-03-29T13:58:26.090Z,12.29
2017-03-29T13:59:38.290Z,12.3
2017-03-29T14:00:50.824Z,12.26
2017-03-29T14:02:03.352Z,12.32
2017-03-29T14:03:15.851Z,12.26
2017-03-29T14:04:27.797Z,12.35
2017-03-29T14:05:40.337Z,12.3
2017-03-29T14:06:52.881Z,12.32
2017-03-29T14:08:05.127Z,12.3
2017-03-29T14:09:17.655Z,12.3
2017-03-29T14:10:30.207Z,12.3
2017-03-29T14:11:42.447Z,12.32
2017-03-29T14:12:54.982Z,12.3
2017-03-29T14:14:07.211Z,12.35
2017-03-29T14:15:19.760Z,12.43
2017-03-29T14:16:32.297Z,12.43
2017-03-29T14:17:44.853Z,12.39
2017-03-29T14:18:57.075Z,12.44
2017-03-29T14:20:09.619Z,12.47
2017-03-29T14:21:21.854Z,12.36
2017-03-29T14:22:34.125Z,12.44
2017-03-29T14:23:46.681Z,12.45
2017-03-29T14:24:59.227Z,12.54
2017-03-29T14:26:11.766Z,12.53
2017-03-29T14:27:24.021Z,12.58
2017-03-29T14:28:36.582Z,12.61
2017-03-29T14:29:49.459Z,12.57
2017-03-29T14:31:01.999Z,12.55
2017-03-29T14:32:14.224Z,12.61
2017-03-29T14:33:26.766Z,12.62
2017-03-29T14:34:39.291Z,12.65
2017-03-29T14:35:51.863Z,12.57
2017-03-29T14:37:04.386Z,12.61
2017-03-29T14:38:16.903Z,12.62
2017-03-29T14:39:29.404Z,12.63
2017-03-29T14:40:41.942Z,12.55
2017-03-29T14:41:54.195Z,12.61
2017-03-29T14:43:06.741Z,12.66
2017-03-29T14:44:19.284Z,12.69
2017-03-29T14:45:31.822Z,12.65
2017-03-29T14:46:44.353Z,12.61
2017-03-29T14:47:56.292Z,12.7
2017-03-29T14:49:08.822Z,12.69
2017-03-29T14:50:21.063Z,12.75
2017-03-29T14:51:33.279Z,12.66
2017-03-29T14:52:44.923Z,12.73
2017-03-29T14:53:57.159Z,12.76
2017-03-29T14:55:09.702Z,12.75
2017-03-29T14:56:22.244Z,12.7
2017-03-29T14:57:34.791Z,12.75
2017-03-29T14:58:47.037Z,12.66
2017-03-29T14:59:59.563Z,12.7
2017-03-29T15:01:11.502Z,12.7
2017-03-29T15:02:24.022Z,12.7
2017-03-29T15:03:36.264Z,12.7
2017-03-29T15:04:48.788Z,12.66
2017-03-29T15:06:01.335Z,12.7
2017-03-29T15:07:13.860Z,12.66
2017-03-29T15:08:26.072Z,12.69
2017-03-29T15:09:38.023Z,12.7
2017-03-29T15:10:50.561Z,12.69
2017-03-29T15:12:03.082Z,12.7
2017-03-29T15:13:15.603Z,12.58
2017-03-29T15:14:28.161Z,12.66
2017-03-29T15:15:40.396Z,12.68
2017-03-29T15:16:52.945Z,12.57
2017-03-29T15:18:05.202Z,12.54
2017-03-29T15:19:17.735Z,12.65
2017-03-29T15:20:30.286Z,12.54
2017-03-29T15:21:42.503Z,12.55
2017-03-29T15:22:55.048Z,12.55
2017-03-29T15:24:07.565Z,12.53
2017-03-29T15:25:20.087Z,12.54
2017-03-29T15:26:32.611Z,12.54
2017-03-29T15:27:44.865Z,12.53
2017-03-29T15:28:57.099Z,12.54
2017-03-29T15:30:09.346Z,12.55
2017-03-29T15:31:21.884Z,12.61
2017-03-29T15:32:34.113Z,12.55
2017-03-29T15:33:46.641Z,12.5
2017-03-29T15:34:58.866Z,12.51
2017-03-29T15:36:11.408Z,12.43
2017-03-29T15:37:23.329Z,12.44
2017-03-29T15:38:35.874Z,12.43
2017-03-29T15:39:48.175Z,12.48
2017-03-29T15:41:00.113Z,12.47
2017-03-29T15:42:12.659Z,12.35
2017-03-29T15:43:25.179Z,12.36
2017-03-29T15:44:37.733Z,12.35
2017-03-29T15:45:49.698Z,12.28
2017-03-29T15:47:02.246Z,12.28
2017-03-29T15:48:14.792Z,12.3